sensor_id;sensor_type;location;lat;lon;timestamp;P1;P2;P0
55485;PMS5003;71262;-25.924;28.194;2024-03-08T00:00:53;0;0;
55485;PMS5003;71262;-25.924;28.194;2024-03-08T00:03:19;1;1;
55485;PMS5003;71262;-25.924;28.194;2024-03-08T00:05:45;1;1;
55485;PMS5003;71262;-25.924;28.194;2024-03-08T00:08:11;1;1;
55485;PMS5003;71262;-25.924;28.194;2024-03-08T00:10:37;1;1;
55485;PMS5003;71262;-25.924;28.194;2024-03-08T00:13:02;1;0;
55485;PMS5003;71262;-25.924;28.194;2024-03-08T00:15:28;1;1;
55485;PMS5003;71262;-25.924;28.194;2024-03-08T00:17:54;1;1;
55485;PMS5003;71262;-25.924;28.194;2024-03-08T00:20:20;1;0;
55485;PMS5003;71262;-25.924;28.194;2024-03-08T00:22:46;1;1;
55485;PMS5003;71262;-25.924;28.194;2024-03-08T00:25:12;1;1;
55485;PMS5003;71262;-25.924;28.194;2024-03-08T00:27:37;0;0;
55485;PMS5003;71262;-25.924;28.194;2024-03-08T00:30:03;2;1;
55485;PMS5003;71262;-25.924;28.194;2024-03-08T00:32:29;0;0;
55485;PMS5003;71262;-25.924;28.194;2024-03-08T00:34:55;1;1;
55485;PMS5003;71262;-25.924;28.194;2024-03-08T00:37:21;0;0;
55485;PMS5003;71262;-25.924;28.194;2024-03-08T00:39:47;1;1;
55485;PMS5003;71262;-25.924;28.194;2024-03-08T00:42:13;0;0;
55485;PMS5003;71262;-25.924;28.194;2024-03-08T00:44:38;2;2;
55485;PMS5003;71262;-25.924;28.194;2024-03-08T00:47:04;1;1;
55485;PMS5003;71262;-25.924;28.194;2024-03-08T00:49:30;1;1;
55485;PMS5003;71262;-25.924;28.194;2024-03-08T00:51:56;1;1;
55485;PMS5003;71262;-25.924;28.194;2024-03-08T00:54:21;1;1;
55485;PMS5003;71262;-25.924;28.194;2024-03-08T00:56:47;0;0;
55485;PMS5003;71262;-25.924;28.194;2024-03-08T00:59:13;1;1;
55485;PMS5003;71262;-25.924;28.194;2024-03-08T01:01:39;0;0;
55485;PMS5003;71262;-25.924;28.194;2024-03-08T01:04:04;3;2;
55485;PMS5003;71262;-25.924;28.194;2024-03-08T01:06:30;3;3;
55485;PMS5003;71262;-25.924;28.194;2024-03-08T01:08:56;1;1;
55485;PMS5003;71262;-25.924;28.194;2024-03-08T01:11:22;2;2;
55485;PMS5003;71262;-25.924;28.194;2024-03-08T01:13:48;1;1;
55485;PMS5003;71262;-25.924;28.194;2024-03-08T01:16:14;2;1;
55485;PMS5003;71262;-25.924;28.194;2024-03-08T01:18:39;0;0;
55485;PMS5003;71262;-25.924;28.194;2024-03-08T01:21:05;0;0;
55485;PMS5003;71262;-25.924;28.194;2024-03-08T01:23:31;2;2;
55485;PMS5003;71262;-25.924;28.194;2024-03-08T01:25:57;2;2;
55485;PMS5003;71262;-25.924;28.194;2024-03-08T01:28:23;2;2;
55485;PMS5003;71262;-25.924;28.194;2024-03-08T01:30:49;2;2;
55485;PMS5003;71262;-25.924;28.194;2024-03-08T01:33:14;1;1;
55485;PMS5003;71262;-25.924;28.194;2024-03-08T01:35:40;1;1;
55485;PMS5003;71262;-25.924;28.194;2024-03-08T01:38:06;0;0;
55485;PMS5003;71262;-25.924;28.194;2024-03-08T01:40:32;2;2;
55485;PMS5003;71262;-25.924;28.194;2024-03-08T01:45:24;1;1;
55485;PMS5003;71262;-25.924;28.194;2024-03-08T01:47:49;2;2;
55485;PMS5003;71262;-25.924;28.194;2024-03-08T01:50:15;2;2;
55485;PMS5003;71262;-25.924;28.194;2024-03-08T01:52:41;1;1;
55485;PMS5003;71262;-25.924;28.194;2024-03-08T01:55:07;2;2;
55485;PMS5003;71262;-25.924;28.194;2024-03-08T01:57:33;0;0;
55485;PMS5003;71262;-25.924;28.194;2024-03-08T01:59:58;1;1;
55485;PMS5003;71262;-25.924;28.194;2024-03-08T02:02:24;1;1;
55485;PMS5003;71262;-25.924;28.194;2024-03-08T02:04:50;0;0;
55485;PMS5003;71262;-25.924;28.194;2024-03-08T02:07:16;1;1;
55485;PMS5003;71262;-25.924;28.194;2024-03-08T02:09:42;1;1;
55485;PMS5003;71262;-25.924;28.194;2024-03-08T02:12:08;0;0;
55485;PMS5003;71262;-25.924;28.194;2024-03-08T02:14:33;0;0;
55485;PMS5003;71262;-25.924;28.194;2024-03-08T02:17:00;0;0;
55485;PMS5003;71262;-25.924;28.194;2024-03-08T02:19:25;0;0;
55485;PMS5003;71262;-25.924;28.194;2024-03-08T02:21:51;2;2;
55485;PMS5003;71262;-25.924;28.194;2024-03-08T02:24:17;0;0;
55485;PMS5003;71262;-25.924;28.194;2024-03-08T02:26:42;1;1;
55485;PMS5003;71262;-25.924;28.194;2024-03-08T02:29:09;2;2;
55485;PMS5003;71262;-25.924;28.194;2024-03-08T02:31:34;1;1;
55485;PMS5003;71262;-25.924;28.194;2024-03-08T02:34:00;1;1;
55485;PMS5003;71262;-25.924;28.194;2024-03-08T02:36:26;2;2;
55485;PMS5003;71262;-25.924;28.194;2024-03-08T02:38:52;1;1;
55485;PMS5003;71262;-25.924;28.194;2024-03-08T02:41:19;1;1;
55485;PMS5003;71262;-25.924;28.194;2024-03-08T02:43:43;2;2;
55485;PMS5003;71262;-25.924;28.194;2024-03-08T02:46:09;2;1;
55485;PMS5003;71262;-25.924;28.194;2024-03-08T02:48:35;1;1;
55485;PMS5003;71262;-25.924;28.194;2024-03-08T02:51:01;2;2;
55485;PMS5003;71262;-25.924;28.194;2024-03-08T02:53:27;2;1;
55485;PMS5003;71262;-25.924;28.194;2024-03-08T02:55:53;3;2;
55485;PMS5003;71262;-25.924;28.194;2024-03-08T02:58:18;2;2;
55485;PMS5003;71262;-25.924;28.194;2024-03-08T03:00:44;1;1;
55485;PMS5003;71262;-25.924;28.194;2024-03-08T03:03:10;3;2;
55485;PMS5003;71262;-25.924;28.194;2024-03-08T03:05:36;2;1;
55485;PMS5003;71262;-25.924;28.194;2024-03-08T03:08:02;0;0;
55485;PMS5003;71262;-25.924;28.194;2024-03-08T03:10:28;1;1;
55485;PMS5003;71262;-25.924;28.194;2024-03-08T03:12:54;1;1;
55485;PMS5003;71262;-25.924;28.194;2024-03-08T03:15:19;2;1;
55485;PMS5003;71262;-25.924;28.194;2024-03-08T03:17:46;3;3;
55485;PMS5003;71262;-25.924;28.194;2024-03-08T03:20:11;2;2;
55485;PMS5003;71262;-25.924;28.194;2024-03-08T03:22:37;3;2;
55485;PMS5003;71262;-25.924;28.194;2024-03-08T03:25:03;2;2;
55485;PMS5003;71262;-25.924;28.194;2024-03-08T03:27:28;2;2;
55485;PMS5003;71262;-25.924;28.194;2024-03-08T03:29:54;1;1;
55485;PMS5003;71262;-25.924;28.194;2024-03-08T03:32:20;3;2;
55485;PMS5003;71262;-25.924;28.194;2024-03-08T03:34:46;1;1;
55485;PMS5003;71262;-25.924;28.194;2024-03-08T03:37:12;1;1;
55485;PMS5003;71262;-25.924;28.194;2024-03-08T03:39:38;3;3;
55485;PMS5003;71262;-25.924;28.194;2024-03-08T03:42:03;2;2;
55485;PMS5003;71262;-25.924;28.194;2024-03-08T03:44:30;2;2;
55485;PMS5003;71262;-25.924;28.194;2024-03-08T03:46:55;2;2;
55485;PMS5003;71262;-25.924;28.194;2024-03-08T03:49:21;3;3;
55485;PMS5003;71262;-25.924;28.194;2024-03-08T03:51:47;2;2;
55485;PMS5003;71262;-25.924;28.194;2024-03-08T03:54:13;2;2;
55485;PMS5003;71262;-25.924;28.194;2024-03-08T03:56:38;2;1;
55485;PMS5003;71262;-25.924;28.194;2024-03-08T03:59:04;2;2;
55485;PMS5003;71262;-25.924;28.194;2024-03-08T04:01:30;2;2;
55485;PMS5003;71262;-25.924;28.194;2024-03-08T04:03:56;3;2;
55485;PMS5003;71262;-25.924;28.194;2024-03-08T04:06:22;1;1;
55485;PMS5003;71262;-25.924;28.194;2024-03-08T04:08:48;1;0;
55485;PMS5003;71262;-25.924;28.194;2024-03-08T04:11:13;2;2;
55485;PMS5003;71262;-25.924;28.194;2024-03-08T04:13:39;1;1;
55485;PMS5003;71262;-25.924;28.194;2024-03-08T04:16:05;4;3;
55485;PMS5003;71262;-25.924;28.194;2024-03-08T04:18:31;2;2;
55485;PMS5003;71262;-25.924;28.194;2024-03-08T04:20:57;4;4;
55485;PMS5003;71262;-25.924;28.194;2024-03-08T04:23:23;5;4;
55485;PMS5003;71262;-25.924;28.194;2024-03-08T04:25:49;4;4;
55485;PMS5003;71262;-25.924;28.194;2024-03-08T04:28:14;5;5;
55485;PMS5003;71262;-25.924;28.194;2024-03-08T04:30:40;5;5;
55485;PMS5003;71262;-25.924;28.194;2024-03-08T04:33:06;6;6;
55485;PMS5003;71262;-25.924;28.194;2024-03-08T04:35:32;4;4;
55485;PMS5003;71262;-25.924;28.194;2024-03-08T04:37:58;5;5;
55485;PMS5003;71262;-25.924;28.194;2024-03-08T04:40:24;7;6;
55485;PMS5003;71262;-25.924;28.194;2024-03-08T04:42:50;5;5;
55485;PMS5003;71262;-25.924;28.194;2024-03-08T04:45:16;4;4;
55485;PMS5003;71262;-25.924;28.194;2024-03-08T04:47:41;5;5;
55485;PMS5003;71262;-25.924;28.194;2024-03-08T04:50:07;1;1;
55485;PMS5003;71262;-25.924;28.194;2024-03-08T04:52:32;3;2;
55485;PMS5003;71262;-25.924;28.194;2024-03-08T04:54:58;4;4;
55485;PMS5003;71262;-25.924;28.194;2024-03-08T04:57:24;3;3;
55485;PMS5003;71262;-25.924;28.194;2024-03-08T04:59:50;5;5;
55485;PMS5003;71262;-25.924;28.194;2024-03-08T05:02:15;13;10;
55485;PMS5003;71262;-25.924;28.194;2024-03-08T05:04:41;7;5;
55485;PMS5003;71262;-25.924;28.194;2024-03-08T05:07:06;7;7;
55485;PMS5003;71262;-25.924;28.194;2024-03-08T05:09:32;9;9;
55485;PMS5003;71262;-25.924;28.194;2024-03-08T05:11:58;12;12;
55485;PMS5003;71262;-25.924;28.194;2024-03-08T05:14:24;9;6;
55485;PMS5003;71262;-25.924;28.194;2024-03-08T05:16:50;7;7;
55485;PMS5003;71262;-25.924;28.194;2024-03-08T05:19:16;9;8;
55485;PMS5003;71262;-25.924;28.194;2024-03-08T05:21:41;4;3;
55485;PMS5003;71262;-25.924;28.194;2024-03-08T05:24:07;6;5;
55485;PMS5003;71262;-25.924;28.194;2024-03-08T05:26:33;5;4;
55485;PMS5003;71262;-25.924;28.194;2024-03-08T05:28:59;4;3;
55485;PMS5003;71262;-25.924;28.194;2024-03-08T05:31:25;5;3;
55485;PMS5003;71262;-25.924;28.194;2024-03-08T05:33:51;5;4;
55485;PMS5003;71262;-25.924;28.194;2024-03-08T05:36:17;5;5;
55485;PMS5003;71262;-25.924;28.194;2024-03-08T05:38:42;3;2;
55485;PMS5003;71262;-25.924;28.194;2024-03-08T05:41:08;3;3;
55485;PMS5003;71262;-25.924;28.194;2024-03-08T05:43:34;5;5;
55485;PMS5003;71262;-25.924;28.194;2024-03-08T05:46:00;4;3;
55485;PMS5003;71262;-25.924;28.194;2024-03-08T05:48:26;4;4;
55485;PMS5003;71262;-25.924;28.194;2024-03-08T05:50:52;4;3;
55485;PMS5003;71262;-25.924;28.194;2024-03-08T05:53:17;5;4;
55485;PMS5003;71262;-25.924;28.194;2024-03-08T05:55:43;6;5;
55485;PMS5003;71262;-25.924;28.194;2024-03-08T05:58:09;8;5;
55485;PMS5003;71262;-25.924;28.194;2024-03-08T06:00:34;24;20;
55485;PMS5003;71262;-25.924;28.194;2024-03-08T06:03:00;34;23;
55485;PMS5003;71262;-25.924;28.194;2024-03-08T06:05:25;30;24;
55485;PMS5003;71262;-25.924;28.194;2024-03-08T06:07:51;34;21;
55485;PMS5003;71262;-25.924;28.194;2024-03-08T06:10:17;25;17;
55485;PMS5003;71262;-25.924;28.194;2024-03-08T06:12:42;19;15;
55485;PMS5003;71262;-25.924;28.194;2024-03-08T06:15:08;22;14;
55485;PMS5003;71262;-25.924;28.194;2024-03-08T06:17:33;22;12;
55485;PMS5003;71262;-25.924;28.194;2024-03-08T06:19:58;30;16;
55485;PMS5003;71262;-25.924;28.194;2024-03-08T06:22:24;14;9;
55485;PMS5003;71262;-25.924;28.194;2024-03-08T06:24:50;17;10;
55485;PMS5003;71262;-25.924;28.194;2024-03-08T06:27:15;21;13;
55485;PMS5003;71262;-25.924;28.194;2024-03-08T06:29:41;15;11;
55485;PMS5003;71262;-25.924;28.194;2024-03-08T06:32:07;13;8;
55485;PMS5003;71262;-25.924;28.194;2024-03-08T06:34:33;10;5;
55485;PMS5003;71262;-25.924;28.194;2024-03-08T06:36:59;7;6;
55485;PMS5003;71262;-25.924;28.194;2024-03-08T06:39:24;11;8;
55485;PMS5003;71262;-25.924;28.194;2024-03-08T06:41:50;5;4;
55485;PMS5003;71262;-25.924;28.194;2024-03-08T06:44:16;7;4;
55485;PMS5003;71262;-25.924;28.194;2024-03-08T06:46:42;3;3;
55485;PMS5003;71262;-25.924;28.194;2024-03-08T06:49:07;6;6;
55485;PMS5003;71262;-25.924;28.194;2024-03-08T06:51:33;7;4;
55485;PMS5003;71262;-25.924;28.194;2024-03-08T06:53:59;5;4;
55485;PMS5003;71262;-25.924;28.194;2024-03-08T06:56:26;5;4;
55485;PMS5003;71262;-25.924;28.194;2024-03-08T06:58:51;6;5;
55485;PMS5003;71262;-25.924;28.194;2024-03-08T07:01:17;4;3;
55485;PMS5003;71262;-25.924;28.194;2024-03-08T07:03:42;5;4;
55485;PMS5003;71262;-25.924;28.194;2024-03-08T07:06:08;4;3;
55485;PMS5003;71262;-25.924;28.194;2024-03-08T07:08:34;6;3;
55485;PMS5003;71262;-25.924;28.194;2024-03-08T07:11:00;2;2;
55485;PMS5003;71262;-25.924;28.194;2024-03-08T07:13:25;4;4;
55485;PMS5003;71262;-25.924;28.194;2024-03-08T07:15:51;3;2;
55485;PMS5003;71262;-25.924;28.194;2024-03-08T07:18:18;4;4;
55485;PMS5003;71262;-25.924;28.194;2024-03-08T07:20:43;3;3;
55485;PMS5003;71262;-25.924;28.194;2024-03-08T07:23:09;3;2;
55485;PMS5003;71262;-25.924;28.194;2024-03-08T07:25:35;5;3;
55485;PMS5003;71262;-25.924;28.194;2024-03-08T07:28:00;4;4;
55485;PMS5003;71262;-25.924;28.194;2024-03-08T07:30:26;3;3;
55485;PMS5003;71262;-25.924;28.194;2024-03-08T07:32:52;3;3;
55485;PMS5003;71262;-25.924;28.194;2024-03-08T07:35:18;3;3;
55485;PMS5003;71262;-25.924;28.194;2024-03-08T07:37:43;2;2;
55485;PMS5003;71262;-25.924;28.194;2024-03-08T07:40:10;2;2;
55485;PMS5003;71262;-25.924;28.194;2024-03-08T07:42:35;2;1;
55485;PMS5003;71262;-25.924;28.194;2024-03-08T07:45:01;4;3;
55485;PMS5003;71262;-25.924;28.194;2024-03-08T07:47:27;1;1;
55485;PMS5003;71262;-25.924;28.194;2024-03-08T07:49:52;3;3;
55485;PMS5003;71262;-25.924;28.194;2024-03-08T07:52:18;2;2;
55485;PMS5003;71262;-25.924;28.194;2024-03-08T07:54:44;2;2;
55485;PMS5003;71262;-25.924;28.194;2024-03-08T07:57:10;2;2;
55485;PMS5003;71262;-25.924;28.194;2024-03-08T07:59:35;1;1;
55485;PMS5003;71262;-25.924;28.194;2024-03-08T08:02:01;1;1;
55485;PMS5003;71262;-25.924;28.194;2024-03-08T08:04:27;3;3;
55485;PMS5003;71262;-25.924;28.194;2024-03-08T08:06:52;2;2;
55485;PMS5003;71262;-25.924;28.194;2024-03-08T08:09:18;4;3;
55485;PMS5003;71262;-25.924;28.194;2024-03-08T08:11:44;8;5;
55485;PMS5003;71262;-25.924;28.194;2024-03-08T08:14:10;4;3;
55485;PMS5003;71262;-25.924;28.194;2024-03-08T08:16:36;2;2;
55485;PMS5003;71262;-25.924;28.194;2024-03-08T08:19:02;3;2;
55485;PMS5003;71262;-25.924;28.194;2024-03-08T08:21:27;3;2;
55485;PMS5003;71262;-25.924;28.194;2024-03-08T08:23:53;2;2;
55485;PMS5003;71262;-25.924;28.194;2024-03-08T08:26:19;3;3;
55485;PMS5003;71262;-25.924;28.194;2024-03-08T08:28:45;2;2;
55485;PMS5003;71262;-25.924;28.194;2024-03-08T08:31:10;3;3;
55485;PMS5003;71262;-25.924;28.194;2024-03-08T08:33:36;1;1;
55485;PMS5003;71262;-25.924;28.194;2024-03-08T08:36:03;3;3;
55485;PMS5003;71262;-25.924;28.194;2024-03-08T08:38:28;3;3;
55485;PMS5003;71262;-25.924;28.194;2024-03-08T08:40:54;1;1;
55485;PMS5003;71262;-25.924;28.194;2024-03-08T08:43:19;6;2;
55485;PMS5003;71262;-25.924;28.194;2024-03-08T08:45:45;0;0;
55485;PMS5003;71262;-25.924;28.194;2024-03-08T08:48:11;2;2;
55485;PMS5003;71262;-25.924;28.194;2024-03-08T08:50:37;2;2;
55485;PMS5003;71262;-25.924;28.194;2024-03-08T08:53:02;1;1;
55485;PMS5003;71262;-25.924;28.194;2024-03-08T08:55:28;2;1;
55485;PMS5003;71262;-25.924;28.194;2024-03-08T08:57:54;2;1;
55485;PMS5003;71262;-25.924;28.194;2024-03-08T09:00:20;2;2;
55485;PMS5003;71262;-25.924;28.194;2024-03-08T09:02:46;2;2;
55485;PMS5003;71262;-25.924;28.194;2024-03-08T09:05:11;2;1;
55485;PMS5003;71262;-25.924;28.194;2024-03-08T09:07:38;1;1;
55485;PMS5003;71262;-25.924;28.194;2024-03-08T09:10:03;2;2;
55485;PMS5003;71262;-25.924;28.194;2024-03-08T09:12:29;1;1;
55485;PMS5003;71262;-25.924;28.194;2024-03-08T09:14:54;2;2;
55485;PMS5003;71262;-25.924;28.194;2024-03-08T09:17:20;1;1;
55485;PMS5003;71262;-25.924;28.194;2024-03-08T09:19:46;2;2;
55485;PMS5003;71262;-25.924;28.194;2024-03-08T09:22:12;1;1;
55485;PMS5003;71262;-25.924;28.194;2024-03-08T09:24:38;2;2;
55485;PMS5003;71262;-25.924;28.194;2024-03-08T09:27:04;2;2;
55485;PMS5003;71262;-25.924;28.194;2024-03-08T09:29:29;2;2;
55485;PMS5003;71262;-25.924;28.194;2024-03-08T09:31:55;1;1;
55485;PMS5003;71262;-25.924;28.194;2024-03-08T09:34:21;1;1;
55485;PMS5003;71262;-25.924;28.194;2024-03-08T09:36:47;1;1;
55485;PMS5003;71262;-25.924;28.194;2024-03-08T09:39:17;2;2;
55485;PMS5003;71262;-25.924;28.194;2024-03-08T09:41:38;1;1;
55485;PMS5003;71262;-25.924;28.194;2024-03-08T09:44:04;2;2;
55485;PMS5003;71262;-25.924;28.194;2024-03-08T09:46:30;5;3;
55485;PMS5003;71262;-25.924;28.194;2024-03-08T09:48:56;2;2;
55485;PMS5003;71262;-25.924;28.194;2024-03-08T09:51:22;1;1;
55485;PMS5003;71262;-25.924;28.194;2024-03-08T09:53:47;2;2;
55485;PMS5003;71262;-25.924;28.194;2024-03-08T09:56:13;2;1;
55485;PMS5003;71262;-25.924;28.194;2024-03-08T09:58:39;2;2;
55485;PMS5003;71262;-25.924;28.194;2024-03-08T10:01:05;2;2;
55485;PMS5003;71262;-25.924;28.194;2024-03-08T10:03:30;3;2;
55485;PMS5003;71262;-25.924;28.194;2024-03-08T10:05:56;2;1;
55485;PMS5003;71262;-25.924;28.194;2024-03-08T10:08:22;2;2;
55485;PMS5003;71262;-25.924;28.194;2024-03-08T10:10:48;2;1;
55485;PMS5003;71262;-25.924;28.194;2024-03-08T10:13:14;2;2;
55485;PMS5003;71262;-25.924;28.194;2024-03-08T10:15:40;3;2;
55485;PMS5003;71262;-25.924;28.194;2024-03-08T10:18:05;2;2;
55485;PMS5003;71262;-25.924;28.194;2024-03-08T10:20:31;3;2;
55485;PMS5003;71262;-25.924;28.194;2024-03-08T10:22:57;2;2;
55485;PMS5003;71262;-25.924;28.194;2024-03-08T10:25:23;3;3;
55485;PMS5003;71262;-25.924;28.194;2024-03-08T10:27:48;2;2;
55485;PMS5003;71262;-25.924;28.194;2024-03-08T10:30:15;1;1;
55485;PMS5003;71262;-25.924;28.194;2024-03-08T10:32:40;2;2;
55485;PMS5003;71262;-25.924;28.194;2024-03-08T10:35:06;2;2;
55485;PMS5003;71262;-25.924;28.194;2024-03-08T10:37:32;2;2;
55485;PMS5003;71262;-25.924;28.194;2024-03-08T10:40:00;2;2;
55485;PMS5003;71262;-25.924;28.194;2024-03-08T10:42:25;1;1;
55485;PMS5003;71262;-25.924;28.194;2024-03-08T10:44:51;2;2;
55485;PMS5003;71262;-25.924;28.194;2024-03-08T10:47:17;2;2;
55485;PMS5003;71262;-25.924;28.194;2024-03-08T10:49:44;2;2;
55485;PMS5003;71262;-25.924;28.194;2024-03-08T10:52:07;1;1;
55485;PMS5003;71262;-25.924;28.194;2024-03-08T10:54:32;2;1;
55485;PMS5003;71262;-25.924;28.194;2024-03-08T10:56:59;5;3;
55485;PMS5003;71262;-25.924;28.194;2024-03-08T10:59:24;2;2;
55485;PMS5003;71262;-25.924;28.194;2024-03-08T11:01:50;3;3;
55485;PMS5003;71262;-25.924;28.194;2024-03-08T11:04:16;3;2;
55485;PMS5003;71262;-25.924;28.194;2024-03-08T11:06:42;3;3;
55485;PMS5003;71262;-25.924;28.194;2024-03-08T11:09:08;6;6;
55485;PMS5003;71262;-25.924;28.194;2024-03-08T11:11:33;7;4;
55485;PMS5003;71262;-25.924;28.194;2024-03-08T11:13:59;4;3;
55485;PMS5003;71262;-25.924;28.194;2024-03-08T11:18:53;4;3;
55485;PMS5003;71262;-25.924;28.194;2024-03-08T11:21:16;3;3;
55485;PMS5003;71262;-25.924;28.194;2024-03-08T11:23:42;2;2;
55485;PMS5003;71262;-25.924;28.194;2024-03-08T11:28:34;3;3;
55485;PMS5003;71262;-25.924;28.194;2024-03-08T11:33:26;3;2;
55485;PMS5003;71262;-25.924;28.194;2024-03-08T11:35:51;2;2;
55485;PMS5003;71262;-25.924;28.194;2024-03-08T11:38:17;5;3;
55485;PMS5003;71262;-25.924;28.194;2024-03-08T11:40:43;2;2;
55485;PMS5003;71262;-25.924;28.194;2024-03-08T11:43:09;3;3;
55485;PMS5003;71262;-25.924;28.194;2024-03-08T11:45:35;2;2;
55485;PMS5003;71262;-25.924;28.194;2024-03-08T11:48:00;2;2;
55485;PMS5003;71262;-25.924;28.194;2024-03-08T11:50:26;0;0;
55485;PMS5003;71262;-25.924;28.194;2024-03-08T11:52:52;2;2;
55485;PMS5003;71262;-25.924;28.194;2024-03-08T11:55:19;3;3;
55485;PMS5003;71262;-25.924;28.194;2024-03-08T11:57:44;2;2;
55485;PMS5003;71262;-25.924;28.194;2024-03-08T12:02:35;2;2;
55485;PMS5003;71262;-25.924;28.194;2024-03-08T12:05:01;2;2;
55485;PMS5003;71262;-25.924;28.194;2024-03-08T12:07:27;4;2;
55485;PMS5003;71262;-25.924;28.194;2024-03-08T12:12:18;2;1;
55485;PMS5003;71262;-25.924;28.194;2024-03-08T12:14:44;2;2;
55485;PMS5003;71262;-25.924;28.194;2024-03-08T12:17:10;3;3;
55485;PMS5003;71262;-25.924;28.194;2024-03-08T12:19:36;3;2;
55485;PMS5003;71262;-25.924;28.194;2024-03-08T12:24:27;3;3;
55485;PMS5003;71262;-25.924;28.194;2024-03-08T12:26:53;2;2;
55485;PMS5003;71262;-25.924;28.194;2024-03-08T12:29:20;3;3;
55485;PMS5003;71262;-25.924;28.194;2024-03-08T12:31:45;2;2;
55485;PMS5003;71262;-25.924;28.194;2024-03-08T12:34:11;5;4;
55485;PMS5003;71262;-25.924;28.194;2024-03-08T12:36:36;2;2;
55485;PMS5003;71262;-25.924;28.194;2024-03-08T12:39:02;3;2;
55485;PMS5003;71262;-25.924;28.194;2024-03-08T12:41:28;1;1;
55485;PMS5003;71262;-25.924;28.194;2024-03-08T12:43:54;2;2;
55485;PMS5003;71262;-25.924;28.194;2024-03-08T12:46:20;2;2;
55485;PMS5003;71262;-25.924;28.194;2024-03-08T12:48:46;3;3;
55485;PMS5003;71262;-25.924;28.194;2024-03-08T12:51:12;2;2;
55485;PMS5003;71262;-25.924;28.194;2024-03-08T12:53:37;3;2;
55485;PMS5003;71262;-25.924;28.194;2024-03-08T12:56:03;3;3;
55485;PMS5003;71262;-25.924;28.194;2024-03-08T12:58:29;3;3;
55485;PMS5003;71262;-25.924;28.194;2024-03-08T13:00:55;3;2;
55485;PMS5003;71262;-25.924;28.194;2024-03-08T13:03:20;4;3;
55485;PMS5003;71262;-25.924;28.194;2024-03-08T13:05:46;4;3;
55485;PMS5003;71262;-25.924;28.194;2024-03-08T13:08:12;5;3;
55485;PMS5003;71262;-25.924;28.194;2024-03-08T13:10:38;2;2;
55485;PMS5003;71262;-25.924;28.194;2024-03-08T13:13:04;1;1;
55485;PMS5003;71262;-25.924;28.194;2024-03-08T13:15:30;5;3;
55485;PMS5003;71262;-25.924;28.194;2024-03-08T13:17:55;0;0;
55485;PMS5003;71262;-25.924;28.194;2024-03-08T13:20:21;4;3;
55485;PMS5003;71262;-25.924;28.194;2024-03-08T13:22:47;2;1;
55485;PMS5003;71262;-25.924;28.194;2024-03-08T13:25:13;3;3;
55485;PMS5003;71262;-25.924;28.194;2024-03-08T13:27:39;4;3;
55485;PMS5003;71262;-25.924;28.194;2024-03-08T13:30:05;3;3;
55485;PMS5003;71262;-25.924;28.194;2024-03-08T13:32:30;3;3;
55485;PMS5003;71262;-25.924;28.194;2024-03-08T13:34:56;2;2;
55485;PMS5003;71262;-25.924;28.194;2024-03-08T13:37:22;3;2;
55485;PMS5003;71262;-25.924;28.194;2024-03-08T13:39:48;3;3;
55485;PMS5003;71262;-25.924;28.194;2024-03-08T13:42:14;4;3;
55485;PMS5003;71262;-25.924;28.194;2024-03-08T13:44:42;2;1;
55485;PMS5003;71262;-25.924;28.194;2024-03-08T13:47:05;4;4;
55485;PMS5003;71262;-25.924;28.194;2024-03-08T13:49:31;3;3;
55485;PMS5003;71262;-25.924;28.194;2024-03-08T13:51:57;2;2;
55485;PMS5003;71262;-25.924;28.194;2024-03-08T13:54:23;2;2;
55485;PMS5003;71262;-25.924;28.194;2024-03-08T13:56:49;3;3;
55485;PMS5003;71262;-25.924;28.194;2024-03-08T13:59:14;3;3;
55485;PMS5003;71262;-25.924;28.194;2024-03-08T14:01:40;3;3;
55485;PMS5003;71262;-25.924;28.194;2024-03-08T14:04:06;2;2;
55485;PMS5003;71262;-25.924;28.194;2024-03-08T14:06:32;3;3;
55485;PMS5003;71262;-25.924;28.194;2024-03-08T14:08:58;2;2;
55485;PMS5003;71262;-25.924;28.194;2024-03-08T14:11:24;3;2;
55485;PMS5003;71262;-25.924;28.194;2024-03-08T14:13:49;3;3;
55485;PMS5003;71262;-25.924;28.194;2024-03-08T14:16:15;4;3;
55485;PMS5003;71262;-25.924;28.194;2024-03-08T14:18:41;3;3;
55485;PMS5003;71262;-25.924;28.194;2024-03-08T14:21:07;2;2;
55485;PMS5003;71262;-25.924;28.194;2024-03-08T14:23:33;3;3;
55485;PMS5003;71262;-25.924;28.194;2024-03-08T14:25:58;3;2;
55485;PMS5003;71262;-25.924;28.194;2024-03-08T14:28:24;5;2;
55485;PMS5003;71262;-25.924;28.194;2024-03-08T14:30:50;2;2;
55485;PMS5003;71262;-25.924;28.194;2024-03-08T14:33:16;2;2;
55485;PMS5003;71262;-25.924;28.194;2024-03-08T14:35:41;2;2;
55485;PMS5003;71262;-25.924;28.194;2024-03-08T14:38:07;3;2;
55485;PMS5003;71262;-25.924;28.194;2024-03-08T14:40:33;1;1;
55485;PMS5003;71262;-25.924;28.194;2024-03-08T14:42:59;2;2;
55485;PMS5003;71262;-25.924;28.194;2024-03-08T14:45:25;3;2;
55485;PMS5003;71262;-25.924;28.194;2024-03-08T14:47:51;3;3;
55485;PMS5003;71262;-25.924;28.194;2024-03-08T14:50:17;3;3;
55485;PMS5003;71262;-25.924;28.194;2024-03-08T14:52:42;2;2;
55485;PMS5003;71262;-25.924;28.194;2024-03-08T14:55:08;2;2;
55485;PMS5003;71262;-25.924;28.194;2024-03-08T14:57:34;2;2;
55485;PMS5003;71262;-25.924;28.194;2024-03-08T15:00:00;3;3;
55485;PMS5003;71262;-25.924;28.194;2024-03-08T15:02:25;6;3;
55485;PMS5003;71262;-25.924;28.194;2024-03-08T15:04:51;2;2;
55485;PMS5003;71262;-25.924;28.194;2024-03-08T15:07:17;4;4;
55485;PMS5003;71262;-25.924;28.194;2024-03-08T15:09:46;3;3;
55485;PMS5003;71262;-25.924;28.194;2024-03-08T15:12:09;3;3;
55485;PMS5003;71262;-25.924;28.194;2024-03-08T15:14:38;4;3;
55485;PMS5003;71262;-25.924;28.194;2024-03-08T15:17:01;4;3;
55485;PMS5003;71262;-25.924;28.194;2024-03-08T15:19:26;5;5;
55485;PMS5003;71262;-25.924;28.194;2024-03-08T15:21:52;4;3;
55485;PMS5003;71262;-25.924;28.194;2024-03-08T15:24:18;4;3;
55485;PMS5003;71262;-25.924;28.194;2024-03-08T15:26:44;5;5;
55485;PMS5003;71262;-25.924;28.194;2024-03-08T15:29:10;4;4;
55485;PMS5003;71262;-25.924;28.194;2024-03-08T15:31:36;4;3;
55485;PMS5003;71262;-25.924;28.194;2024-03-08T15:34:01;3;2;
55485;PMS5003;71262;-25.924;28.194;2024-03-08T15:36:27;4;3;
55485;PMS5003;71262;-25.924;28.194;2024-03-08T15:38:53;2;2;
55485;PMS5003;71262;-25.924;28.194;2024-03-08T15:41:19;4;4;
55485;PMS5003;71262;-25.924;28.194;2024-03-08T15:43:45;3;3;
55485;PMS5003;71262;-25.924;28.194;2024-03-08T15:46:10;4;3;
55485;PMS5003;71262;-25.924;28.194;2024-03-08T15:48:37;3;3;
55485;PMS5003;71262;-25.924;28.194;2024-03-08T15:51:02;5;4;
55485;PMS5003;71262;-25.924;28.194;2024-03-08T15:53:28;3;3;
55485;PMS5003;71262;-25.924;28.194;2024-03-08T15:55:54;3;3;
55485;PMS5003;71262;-25.924;28.194;2024-03-08T15:58:20;5;5;
55485;PMS5003;71262;-25.924;28.194;2024-03-08T16:00:46;5;4;
55485;PMS5003;71262;-25.924;28.194;2024-03-08T16:03:12;4;4;
55485;PMS5003;71262;-25.924;28.194;2024-03-08T16:05:37;5;4;
55485;PMS5003;71262;-25.924;28.194;2024-03-08T16:08:03;5;4;
55485;PMS5003;71262;-25.924;28.194;2024-03-08T16:10:29;4;3;
55485;PMS5003;71262;-25.924;28.194;2024-03-08T16:12:55;3;3;
55485;PMS5003;71262;-25.924;28.194;2024-03-08T16:15:20;6;5;
55485;PMS5003;71262;-25.924;28.194;2024-03-08T16:17:46;3;2;
55485;PMS5003;71262;-25.924;28.194;2024-03-08T16:20:12;4;4;
55485;PMS5003;71262;-25.924;28.194;2024-03-08T16:22:39;2;2;